createdAt,value
2023-06-17T00:00:26.109Z,2.30
2023-06-17T00:02:55.923Z,2.20
2023-06-17T00:05:25.559Z,2.38
2023-06-17T00:07:55.428Z,2.80
2023-06-17T00:10:23.769Z,2.58
2023-06-17T00:12:52.166Z,2.58
2023-06-17T00:15:21.775Z,2.53
2023-06-17T00:17:51.474Z,2.55
2023-06-17T00:20:21.874Z,2.35
2023-06-17T00:22:50.491Z,2.47
2023-06-17T00:25:18.848Z,2.30
2023-06-17T00:27:47.243Z,2.20
2023-06-17T00:30:15.782Z,2.42
2023-06-17T00:32:44.131Z,2.28
2023-06-17T00:35:12.494Z,3.35
2023-06-17T00:37:42.233Z,2.78
2023-06-17T00:40:11.178Z,2.10
2023-06-17T00:42:41.252Z,2.35
2023-06-17T00:45:10.127Z,2.20
2023-06-17T00:47:38.836Z,2.35
2023-06-17T00:50:08.982Z,3.22
2023-06-17T00:52:42.432Z,1.95
2023-06-17T00:55:13.227Z,2.63
2023-06-17T00:57:41.962Z,2.70
2023-06-17T01:00:12.743Z,2.67
2023-06-17T01:02:42.406Z,2.20
2023-06-17T01:05:12.692Z,2.65
2023-06-17T01:07:47.315Z,2.30
2023-06-17T01:10:20.275Z,2.47
2023-06-17T01:12:49.536Z,2.40
2023-06-17T01:15:18.301Z,2.20
2023-06-17T01:17:47.758Z,2.60
2023-06-17T01:20:17.717Z,2.40
2023-06-17T01:22:47.901Z,2.25
2023-06-17T01:25:17.771Z,2.88
2023-06-17T01:27:47.288Z,2.25
2023-06-17T01:30:16.256Z,2.58
2023-06-17T01:32:44.665Z,2.53
2023-06-17T01:35:15.170Z,2.38
2023-06-17T01:37:44.516Z,2.80
2023-06-17T01:40:14.821Z,2.30
2023-06-17T01:42:47.508Z,2.63
2023-06-17T01:45:16.477Z,2.53
2023-06-17T01:47:45.098Z,2.80
2023-06-17T01:50:13.515Z,2.55
2023-06-17T01:52:41.880Z,2.67
2023-06-17T01:55:10.670Z,2.30
2023-06-17T01:57:39.019Z,2.80
2023-06-17T02:00:10.137Z,2.80
2023-06-17T02:02:38.657Z,2.38
2023-06-17T02:05:07.481Z,2.50
2023-06-17T02:07:35.866Z,2.20
2023-06-17T02:10:05.030Z,2.63
2023-06-17T02:12:33.477Z,2.58
2023-06-17T02:15:01.912Z,2.53
2023-06-17T02:17:31.649Z,3.00
2023-06-17T02:20:00.038Z,2.40
2023-06-17T02:22:28.512Z,2.15
2023-06-17T02:24:56.853Z,2.58
2023-06-17T02:27:25.440Z,2.25
2023-06-17T02:29:53.817Z,2.30
2023-06-17T02:32:22.114Z,2.53
2023-06-17T02:34:51.983Z,2.50
2023-06-17T02:37:20.308Z,2.72
2023-06-17T02:39:48.638Z,2.72
2023-06-17T02:42:17.060Z,2.50
2023-06-17T02:44:45.648Z,1.85
2023-06-17T02:47:14.077Z,2.83
2023-06-17T02:49:42.509Z,2.33
2023-06-17T02:52:12.193Z,2.60
2023-06-17T02:54:40.528Z,2.42
2023-06-17T02:57:09.626Z,2.25
2023-06-17T02:59:38.818Z,2.63
2023-06-17T03:02:07.621Z,2.60
2023-06-17T03:04:37.047Z,2.83
2023-06-17T03:07:05.581Z,2.42
2023-06-17T03:09:35.727Z,2.20
2023-06-17T03:12:05.942Z,2.20
2023-06-17T03:14:34.710Z,2.30
2023-06-17T03:17:04.735Z,2.50
2023-06-17T03:19:33.348Z,2.50
2023-06-17T03:22:02.107Z,2.75
2023-06-17T03:24:30.705Z,2.67
2023-06-17T03:27:00.454Z,2.38
2023-06-17T03:29:28.836Z,2.50
2023-06-17T03:31:58.339Z,2.17
2023-06-17T03:34:27.063Z,2.40
2023-06-17T03:36:57.715Z,3.00
2023-06-17T03:39:26.118Z,2.65
2023-06-17T03:41:54.462Z,2.47
2023-06-17T03:44:24.135Z,2.30
2023-06-17T03:46:52.580Z,2.47
2023-06-17T03:49:20.927Z,2.30
2023-06-17T03:51:49.276Z,1.83
2023-06-17T03:54:17.602Z,2.50
2023-06-17T03:56:46.033Z,2.70
2023-06-17T03:59:14.404Z,2.60
2023-06-17T04:01:44.115Z,2.60
2023-06-17T04:04:12.503Z,2.20
2023-06-17T04:06:41.394Z,2.40
2023-06-17T04:09:10.020Z,2.40
2023-06-17T04:11:38.313Z,2.53
2023-06-17T04:14:07.021Z,2.53
2023-06-17T04:16:36.793Z,2.65
2023-06-17T04:19:06.911Z,2.20
2023-06-17T04:21:35.761Z,2.65
2023-06-17T04:24:04.178Z,2.90
2023-06-17T04:26:32.572Z,2.22
2023-06-17T04:29:01.971Z,2.35
2023-06-17T04:31:30.298Z,2.53
2023-06-17T04:34:00.267Z,2.67
2023-06-17T04:36:30.560Z,2.80
2023-06-17T04:38:59.852Z,2.83
2023-06-17T04:41:28.793Z,2.85
2023-06-17T04:43:57.121Z,2.90
2023-06-17T04:46:25.803Z,2.70
2023-06-17T04:48:54.635Z,3.05
2023-06-17T04:51:22.944Z,2.63
2023-06-17T04:53:52.708Z,2.55
2023-06-17T04:56:21.149Z,2.70
2023-06-17T04:58:49.567Z,2.25
2023-06-17T05:01:17.913Z,2.67
2023-06-17T05:03:46.341Z,2.40
2023-06-17T05:06:14.690Z,2.58
2023-06-17T05:08:42.971Z,2.53
2023-06-17T05:11:12.673Z,2.40
2023-06-17T05:13:41.275Z,2.70
2023-06-17T05:16:09.605Z,2.40
2023-06-17T05:18:37.933Z,2.63
2023-06-17T05:21:06.378Z,2.38
2023-06-17T05:23:34.789Z,2.67
2023-06-17T05:26:03.199Z,2.53
2023-06-17T05:28:33.019Z,2.30
2023-06-17T05:31:01.474Z,2.45
2023-06-17T05:33:29.870Z,2.40
2023-06-17T05:36:01.594Z,2.70
2023-06-17T05:38:29.946Z,2.60
2023-06-17T05:40:58.298Z,2.80
2023-06-17T05:43:28.641Z,2.20
2023-06-17T05:45:58.680Z,2.65
2023-06-17T05:48:27.057Z,2.90
2023-06-17T05:50:55.401Z,2.30
2023-06-17T05:53:23.759Z,2.42
2023-06-17T05:55:52.073Z,2.42
2023-06-17T05:58:20.527Z,2.60
2023-06-17T06:00:48.921Z,2.97
2023-06-17T06:03:18.625Z,2.60
2023-06-17T06:05:46.961Z,2.88
2023-06-17T06:08:15.509Z,2.40
2023-06-17T06:10:43.900Z,2.33
2023-06-17T06:13:12.289Z,2.58
2023-06-17T06:15:40.614Z,2.72
2023-06-17T06:18:09.088Z,2.33
2023-06-17T06:20:38.854Z,2.40
2023-06-17T06:23:07.349Z,2.40
2023-06-17T06:25:35.741Z,2.95
2023-06-17T06:28:04.193Z,3.45
2023-06-17T06:30:32.675Z,2.53
2023-06-17T06:33:01.038Z,2.80
2023-06-17T06:35:29.468Z,2.45
2023-06-17T06:37:59.173Z,2.40
2023-06-17T06:40:27.657Z,2.80
2023-06-17T06:42:56.013Z,2.60
2023-06-17T06:45:24.344Z,2.75
2023-06-17T06:47:52.839Z,2.78
2023-06-17T06:50:21.616Z,2.65
2023-06-17T06:52:50.469Z,2.63
2023-06-17T06:55:20.239Z,2.47
2023-06-17T06:57:48.604Z,2.90
2023-06-17T07:00:17.689Z,2.33
2023-06-17T07:02:46.216Z,2.78
2023-06-17T07:05:14.735Z,3.00
2023-06-17T07:07:43.241Z,2.63
2023-06-17T07:10:11.766Z,2.83
2023-06-17T07:12:43.532Z,2.78
2023-06-17T07:15:15.250Z,3.90
2023-06-17T07:17:43.595Z,2.25
2023-06-17T07:20:12.337Z,2.60
2023-06-17T07:22:40.701Z,2.33
2023-06-17T07:25:10.999Z,2.47
2023-06-17T07:27:40.823Z,2.15
2023-06-17T07:30:09.746Z,2.70
2023-06-17T07:32:38.207Z,2.15
2023-06-17T07:35:07.177Z,2.67
2023-06-17T07:37:35.864Z,2.30
2023-06-17T07:40:06.269Z,2.15
2023-06-17T07:42:34.648Z,2.40
2023-06-17T07:45:04.391Z,2.28
2023-06-17T07:47:32.766Z,2.33
2023-06-17T07:50:01.230Z,2.17
2023-06-17T07:52:30.247Z,2.20
2023-06-17T07:54:58.837Z,2.25
2023-06-17T07:57:27.165Z,1.90
2023-06-17T07:59:55.741Z,2.30
2023-06-17T08:02:25.826Z,2.22
2023-06-17T08:04:54.268Z,2.15
2023-06-17T08:07:22.601Z,2.13
2023-06-17T08:09:51.022Z,2.40
2023-06-17T08:12:19.388Z,2.22
2023-06-17T08:14:47.714Z,1.77
2023-06-17T08:17:16.075Z,2.70
2023-06-17T08:19:45.787Z,2.25
2023-06-17T08:22:14.771Z,2.22
2023-06-17T08:24:43.552Z,2.60
2023-06-17T08:27:13.421Z,2.60
2023-06-17T08:29:42.243Z,2.15
2023-06-17T08:32:10.605Z,3.10
2023-06-17T08:34:38.959Z,2.50
2023-06-17T08:37:09.243Z,2.25
2023-06-17T08:39:40.797Z,2.22
2023-06-17T08:42:09.610Z,3.00
2023-06-17T08:44:41.412Z,2.17
2023-06-17T08:47:09.937Z,2.40
2023-06-17T08:49:38.289Z,2.30
2023-06-17T08:52:07.920Z,2.17
2023-06-17T08:54:41.425Z,2.60
2023-06-17T08:57:12.746Z,2.30
2023-06-17T08:59:41.274Z,2.47
2023-06-17T09:02:11.653Z,1.98
2023-06-17T09:04:40.001Z,2.35
2023-06-17T09:07:10.494Z,2.25
2023-06-17T09:09:40.402Z,3.05
2023-06-17T09:12:09.684Z,2.42
2023-06-17T09:14:39.410Z,1.92
2023-06-17T09:17:07.974Z,2.35
2023-06-17T09:19:36.490Z,2.28
2023-06-17T09:22:08.201Z,2.45
2023-06-17T09:24:37.465Z,2.70
2023-06-17T09:27:07.710Z,2.30
2023-06-17T09:29:37.886Z,2.10
2023-06-17T09:32:06.750Z,2.00
2023-06-17T09:34:35.082Z,2.63
2023-06-17T09:37:04.469Z,2.50
2023-06-17T09:39:34.021Z,2.28
2023-06-17T09:42:11.671Z,2.22
2023-06-17T09:44:40.366Z,2.38
2023-06-17T09:47:09.249Z,2.33
2023-06-17T09:49:39.344Z,2.35
2023-06-17T09:52:09.989Z,2.47
2023-06-17T09:54:39.258Z,2.40
2023-06-17T09:57:11.172Z,2.40
2023-06-17T09:59:40.994Z,2.90
2023-06-17T10:02:10.592Z,2.35
2023-06-17T10:04:39.310Z,2.15
2023-06-17T10:07:08.649Z,2.83
2023-06-17T10:09:37.058Z,2.10
2023-06-17T10:12:06.115Z,2.33
2023-06-17T10:14:35.170Z,2.13
2023-06-17T10:17:06.612Z,2.00
2023-06-17T10:19:36.814Z,2.50
2023-06-17T10:22:07.267Z,2.30
2023-06-17T10:24:35.693Z,2.60
2023-06-17T10:27:05.413Z,2.60
2023-06-17T10:29:34.826Z,2.78
2023-06-17T10:32:19.254Z,2.53
2023-06-17T10:35:02.505Z,2.97
2023-06-17T10:37:31.040Z,2.55
2023-06-17T10:40:20.820Z,2.78
2023-06-17T10:42:55.285Z,2.50
2023-06-17T10:45:23.639Z,2.38
2023-06-17T10:47:53.353Z,2.50
2023-06-17T10:50:24.704Z,2.22
2023-06-17T10:53:01.604Z,2.63
2023-06-17T10:55:29.989Z,3.10
2023-06-17T10:58:00.543Z,2.47
2023-06-17T11:00:28.870Z,2.63
2023-06-17T11:02:58.711Z,2.20
2023-06-17T11:05:27.483Z,2.80
2023-06-17T11:07:55.822Z,2.38
2023-06-17T11:10:28.271Z,2.78
2023-06-17T11:12:56.756Z,2.60
2023-06-17T11:15:25.080Z,2.53
2023-06-17T11:18:02.677Z,2.85
2023-06-17T11:20:32.733Z,2.58
2023-06-17T11:23:01.072Z,2.67
2023-06-17T11:25:43.490Z,2.35
2023-06-17T11:28:13.617Z,2.75
2023-06-17T11:30:42.676Z,2.63
2023-06-17T11:33:12.547Z,2.78
2023-06-17T11:35:41.197Z,2.30
2023-06-17T11:38:09.701Z,2.15
2023-06-17T11:40:38.110Z,2.47
2023-06-17T11:43:06.645Z,2.88
2023-06-17T11:45:36.551Z,2.38
2023-06-17T11:48:07.873Z,2.47
2023-06-17T11:50:40.023Z,2.75
2023-06-17T11:53:08.374Z,2.83
2023-06-17T11:55:37.412Z,2.97
2023-06-17T11:58:07.090Z,2.60
2023-06-17T12:00:37.482Z,3.10
2023-06-17T12:03:06.205Z,2.40
2023-06-17T12:05:34.655Z,2.67
2023-06-17T12:08:04.825Z,2.53
2023-06-17T12:10:39.081Z,2.30
2023-06-17T12:13:07.462Z,3.30
2023-06-17T12:15:37.304Z,2.70
2023-06-17T12:18:12.018Z,2.65
2023-06-17T12:20:40.606Z,2.70
2023-06-17T12:23:10.319Z,2.70
2023-06-17T12:25:38.655Z,2.88
2023-06-17T12:28:07.512Z,2.67
2023-06-17T12:30:36.197Z,2.47
2023-06-17T12:33:04.608Z,2.88
2023-06-17T12:35:32.992Z,2.58
2023-06-17T12:38:01.372Z,2.17
2023-06-17T12:40:31.146Z,2.90
2023-06-17T12:43:00.213Z,2.28
2023-06-17T12:45:28.732Z,2.85
2023-06-17T12:47:57.845Z,2.85
2023-06-17T12:50:26.388Z,2.70
2023-06-17T12:52:56.550Z,2.53
2023-06-17T12:55:24.903Z,2.42
2023-06-17T12:57:54.667Z,2.80
2023-06-17T13:00:23.084Z,2.35
2023-06-17T13:02:51.475Z,2.50
2023-06-17T13:05:20.570Z,2.95
2023-06-17T13:07:49.263Z,2.78
2023-06-17T13:10:17.600Z,2.35
2023-06-17T13:12:45.991Z,3.30
2023-06-17T13:15:15.742Z,2.53
2023-06-17T13:17:44.153Z,2.67
2023-06-17T13:20:13.021Z,2.83
2023-06-17T13:22:44.225Z,2.80
2023-06-17T13:25:12.554Z,2.35
2023-06-17T13:27:41.448Z,2.58
2023-06-17T13:30:10.348Z,2.38
2023-06-17T13:32:40.257Z,2.75
2023-06-17T13:35:08.982Z,2.22
2023-06-17T13:37:37.282Z,2.92
2023-06-17T13:40:05.872Z,2.85
2023-06-17T13:42:34.338Z,2.55
2023-06-17T13:45:04.295Z,2.72
2023-06-17T13:47:33.687Z,2.60
2023-06-17T13:50:03.618Z,2.58
2023-06-17T13:52:32.165Z,3.00
2023-06-17T13:55:00.542Z,2.60
2023-06-17T13:57:28.860Z,2.58
2023-06-17T13:59:57.222Z,2.28
2023-06-17T14:02:25.633Z,2.55
2023-06-17T14:04:54.952Z,2.60
2023-06-17T14:07:24.645Z,2.47
2023-06-17T14:09:52.961Z,2.35
2023-06-17T14:12:21.524Z,2.40
2023-06-17T14:14:50.090Z,3.10
2023-06-17T14:17:18.533Z,2.05
2023-06-17T14:19:46.887Z,2.92
2023-06-17T14:22:15.195Z,2.25
2023-06-17T14:24:45.152Z,2.72
2023-06-17T14:27:25.921Z,2.90
2023-06-17T14:29:54.306Z,2.63
2023-06-17T14:32:22.756Z,2.67
2023-06-17T14:34:51.915Z,2.70
2023-06-17T14:37:20.311Z,2.90
2023-06-17T14:39:49.996Z,2.92
2023-06-17T14:42:18.358Z,2.60
2023-06-17T14:44:46.663Z,2.78
2023-06-17T14:47:15.017Z,2.55
2023-06-17T14:49:43.405Z,2.92
2023-06-17T14:52:11.713Z,2.72
2023-06-17T14:54:40.080Z,2.58
2023-06-17T14:57:10.687Z,2.22
2023-06-17T14:59:39.011Z,2.45
2023-06-17T15:02:26.008Z,3.13
2023-06-17T15:04:54.423Z,2.10
2023-06-17T15:07:22.775Z,2.97
2023-06-17T15:09:51.123Z,2.70
2023-06-17T15:12:20.808Z,2.60
2023-06-17T15:14:51.857Z,2.40
2023-06-17T15:17:20.218Z,2.95
2023-06-17T15:19:48.949Z,2.83
2023-06-17T15:22:17.341Z,2.45
2023-06-17T15:24:45.693Z,2.70
2023-06-17T15:27:14.021Z,2.30
2023-06-17T15:29:43.724Z,2.63
2023-06-17T15:32:12.054Z,2.55
2023-06-17T15:34:40.446Z,2.20
2023-06-17T15:37:09.789Z,2.72
2023-06-17T15:39:38.150Z,2.13
2023-06-17T15:42:06.837Z,2.60
2023-06-17T15:44:35.190Z,2.88
2023-06-17T15:47:05.011Z,2.75
2023-06-17T15:49:35.363Z,2.70
2023-06-17T15:52:04.184Z,2.40
2023-06-17T15:54:32.553Z,2.13
2023-06-17T15:57:02.483Z,2.97
2023-06-17T15:59:31.449Z,2.75
2023-06-17T16:01:59.811Z,2.60
2023-06-17T16:04:35.516Z,2.75
2023-06-17T16:07:04.889Z,2.85
2023-06-17T16:09:34.081Z,3.00
2023-06-17T16:12:03.974Z,3.33
2023-06-17T16:14:33.330Z,2.65
2023-06-17T16:17:04.574Z,2.75
2023-06-17T16:19:33.170Z,2.40
2023-06-17T16:22:03.406Z,2.70
2023-06-17T16:24:31.915Z,2.72
2023-06-17T16:27:00.800Z,2.92
2023-06-17T16:29:29.179Z,3.20
2023-06-17T16:31:57.521Z,2.60
2023-06-17T16:34:25.922Z,2.55
2023-06-17T16:36:54.287Z,3.20
2023-06-17T16:39:24.210Z,2.50
2023-06-17T16:41:52.576Z,2.70
2023-06-17T16:44:20.959Z,3.17
2023-06-17T16:46:49.382Z,3.20
2023-06-17T16:49:17.796Z,3.25
2023-06-17T16:51:46.643Z,3.05
2023-06-17T16:54:14.957Z,3.03
2023-06-17T16:56:44.716Z,3.10
2023-06-17T16:59:13.385Z,2.80
2023-06-17T17:01:42.114Z,3.33
2023-06-17T17:04:11.733Z,2.95
2023-06-17T17:06:41.238Z,3.03
2023-06-17T17:09:09.605Z,3.53
2023-06-17T17:11:38.228Z,2.80
2023-06-17T17:14:09.289Z,3.15
2023-06-17T17:16:37.717Z,2.88
2023-06-17T17:19:06.429Z,2.67
2023-06-17T17:21:35.448Z,3.40
2023-06-17T17:24:06.188Z,3.00
2023-06-17T17:26:35.010Z,2.75
2023-06-17T17:29:04.188Z,3.28
2023-06-17T17:31:34.076Z,2.83
2023-06-17T17:34:02.419Z,3.00
2023-06-17T17:36:30.752Z,2.92
2023-06-17T17:39:00.293Z,2.40
2023-06-17T17:41:29.755Z,3.10
2023-06-17T17:43:58.142Z,2.92
2023-06-17T17:46:26.551Z,2.33
2023-06-17T17:48:56.278Z,2.80
2023-06-17T17:51:24.724Z,3.20
2023-06-17T17:53:53.026Z,2.88
2023-06-17T17:56:21.343Z,2.50
2023-06-17T17:58:50.731Z,2.85
2023-06-17T18:01:19.096Z,2.65
2023-06-17T18:03:47.548Z,2.78
2023-06-17T18:06:20.337Z,2.85
2023-06-17T18:08:48.758Z,2.97
2023-06-17T18:11:17.091Z,3.00
2023-06-17T18:13:45.450Z,2.40
2023-06-17T18:16:13.815Z,2.22
2023-06-17T18:18:42.237Z,2.53
2023-06-17T18:21:10.569Z,2.28
2023-06-17T18:23:40.487Z,2.80
2023-06-17T18:26:09.657Z,2.78
2023-06-17T18:28:38.157Z,3.30
2023-06-17T18:31:06.661Z,2.95
2023-06-17T18:33:35.545Z,2.88
2023-06-17T18:36:04.392Z,2.83
2023-06-17T18:38:32.742Z,2.47
2023-06-17T18:41:02.407Z,2.90
2023-06-17T18:43:30.766Z,2.70
2023-06-17T18:45:59.198Z,2.38
2023-06-17T18:48:27.739Z,3.03
2023-06-17T18:50:56.078Z,3.05
2023-06-17T18:53:24.432Z,2.75
2023-06-17T18:55:52.735Z,2.60
2023-06-17T18:58:22.855Z,2.88
2023-06-17T19:00:51.277Z,3.25
2023-06-17T19:03:20.128Z,3.22
2023-06-17T19:05:48.525Z,3.35
2023-06-17T19:08:16.842Z,3.40
2023-06-17T19:10:45.191Z,3.20
2023-06-17T19:13:13.498Z,3.15
2023-06-17T19:15:43.178Z,3.15
2023-06-17T19:18:11.805Z,3.33
2023-06-17T19:20:41.320Z,2.92
2023-06-17T19:23:09.864Z,3.33
2023-06-17T19:25:38.225Z,3.30
2023-06-17T19:28:06.761Z,3.70
2023-06-17T19:30:35.070Z,3.33
2023-06-17T19:33:04.901Z,3.08
2023-06-17T19:35:33.325Z,2.90
2023-06-17T19:38:02.553Z,2.70
2023-06-17T19:40:30.910Z,3.30
2023-06-17T19:42:59.240Z,2.72
2023-06-17T19:45:29.706Z,2.58
2023-06-17T19:47:59.292Z,3.13
2023-06-17T19:50:29.343Z,2.67
2023-06-17T19:52:57.824Z,2.70
2023-06-17T19:55:26.222Z,3.33
2023-06-17T19:57:54.651Z,2.13
2023-06-17T20:00:23.484Z,2.80
2023-06-17T20:02:52.808Z,2.65
2023-06-17T20:05:21.291Z,3.00
2023-06-17T20:07:51.159Z,2.50
2023-06-17T20:10:19.846Z,2.83
2023-06-17T20:12:48.406Z,3.08
2023-06-17T20:15:17.476Z,2.45
2023-06-17T20:17:45.997Z,2.67
2023-06-17T20:20:15.191Z,2.85
2023-06-17T20:22:43.744Z,3.03
2023-06-17T20:25:13.902Z,2.47
2023-06-17T20:27:43.566Z,2.88
2023-06-17T20:30:12.148Z,3.03
2023-06-17T20:32:40.640Z,2.80
2023-06-17T20:35:09.343Z,2.97
2023-06-17T20:37:38.040Z,2.75
2023-06-17T20:40:06.807Z,3.00
2023-06-17T20:42:37.716Z,2.95
2023-06-17T20:45:08.250Z,3.25
2023-06-17T20:47:36.900Z,3.08
2023-06-17T20:50:05.369Z,3.17
2023-06-17T20:52:33.722Z,2.53
2023-06-17T20:55:02.088Z,2.97
2023-06-17T20:57:30.493Z,2.75
2023-06-17T21:00:00.193Z,2.70
2023-06-17T21:02:28.643Z,2.75
2023-06-17T21:04:58.190Z,2.78
2023-06-17T21:07:26.722Z,2.85
2023-06-17T21:09:55.448Z,3.38
2023-06-17T21:12:23.810Z,3.08
2023-06-17T21:14:52.159Z,3.08
2023-06-17T21:17:21.937Z,3.00
2023-06-17T21:19:50.297Z,2.55
2023-06-17T21:22:18.664Z,3.25
2023-06-17T21:24:47.010Z,2.97
2023-06-17T21:27:15.512Z,2.63
2023-06-17T21:29:43.853Z,2.85
2023-06-17T21:32:12.353Z,2.85
2023-06-17T21:34:42.298Z,3.28
2023-06-17T21:37:12.592Z,2.90
2023-06-17T21:39:40.908Z,2.90
2023-06-17T21:42:09.439Z,2.55
2023-06-17T21:44:37.835Z,3.08
2023-06-17T21:47:06.555Z,3.53
2023-06-17T21:49:35.339Z,3.17
2023-06-17T21:52:05.266Z,2.92
2023-06-17T21:54:33.633Z,3.47
2023-06-17T21:57:02.013Z,2.92
2023-06-17T21:59:31.112Z,3.08
2023-06-17T22:01:59.586Z,3.58
2023-06-17T22:04:28.018Z,3.40
2023-06-17T22:06:56.962Z,3.60
2023-06-17T22:09:26.743Z,3.60
2023-06-17T22:11:55.124Z,3.50
2023-06-17T22:14:23.457Z,3.45
2023-06-17T22:16:52.053Z,3.95
2023-06-17T22:19:20.955Z,3.65
2023-06-17T22:21:49.347Z,3.50
2023-06-17T22:24:17.752Z,3.53
2023-06-17T22:26:47.514Z,3.80
2023-06-17T22:29:15.848Z,3.78
2023-06-17T22:31:44.438Z,3.20
2023-06-17T22:34:12.820Z,3.80
2023-06-17T22:36:41.159Z,3.75
2023-06-17T22:39:09.508Z,3.80
2023-06-17T22:41:37.842Z,3.47
2023-06-17T22:44:07.656Z,3.58
2023-06-17T22:46:36.022Z,3.20
2023-06-17T22:49:04.396Z,3.55
2023-06-17T22:51:33.071Z,3.83
2023-06-17T22:54:01.460Z,4.10
2023-06-17T22:56:29.767Z,4.05
2023-06-17T22:58:58.099Z,3.88
2023-06-17T23:01:28.187Z,3.78
2023-06-17T23:03:56.549Z,3.83
2023-06-17T23:06:26.786Z,5.13
2023-06-17T23:08:55.128Z,4.88
2023-06-17T23:11:23.445Z,4.35
2023-06-17T23:13:51.998Z,4.80
2023-06-17T23:16:20.391Z,4.57
2023-06-17T23:18:50.145Z,4.72
2023-06-17T23:21:19.783Z,4.55
2023-06-17T23:23:49.612Z,4.63
2023-06-17T23:26:17.959Z,4.72
2023-06-17T23:28:46.448Z,4.68
2023-06-17T23:31:14.859Z,4.72
2023-06-17T23:33:44.056Z,5.00
2023-06-17T23:36:13.802Z,4.55
2023-06-17T23:38:42.152Z,5.18
2023-06-17T23:41:10.546Z,5.03
2023-06-17T23:43:38.895Z,4.95
2023-06-17T23:46:07.590Z,4.90
2023-06-17T23:48:36.300Z,4.55
2023-06-17T23:51:04.664Z,4.40
2023-06-17T23:53:34.798Z,5.05
2023-06-17T23:56:03.235Z,5.20
2023-06-17T23:58:32.095Z,4.97
